Time;durP1;ratioP1;P1;durP2;ratioP2;P2;SDS_P1;SDS_P2;PMS_P1;PMS_P2;Temp;Humidity;BMP_temperature;BMP_pressure;BME280_temperature;BME280_humidity;BME280_pressure;Samples;Min_cycle;Max_cycle;Signal;HPM_P1;HPM_P2
2021/07/23 00:01:54;;;;;;;5.55;2.60;;;18.30;90.60;;;;;;4842559;29;20128;-71
2021/07/23 00:04:20;;;;;;;8.13;2.50;;;18.20;90.60;;;;;;4843216;29;20074;-71
2021/07/23 00:06:46;;;;;;;5.13;2.60;;;18.30;90.60;;;;;;4841871;29;20041;-71
2021/07/23 00:09:11;;;;;;;8.38;3.20;;;18.30;90.60;;;;;;4842694;29;20079;-72
2021/07/23 00:11:37;;;;;;;7.15;2.95;;;18.20;90.70;;;;;;4843238;29;20041;-71
2021/07/23 00:14:02;;;;;;;9.77;3.08;;;18.20;90.50;;;;;;4842585;29;20041;-71
2021/07/23 00:16:28;;;;;;;7.50;3.03;;;18.20;90.60;;;;;;4842594;29;20069;-70
2021/07/23 00:18:54;;;;;;;10.05;3.15;;;18.10;90.70;;;;;;4842813;29;20539;-72
2021/07/23 00:21:19;;;;;;;5.88;2.97;;;18.10;90.80;;;;;;4842525;29;20042;-70
2021/07/23 00:23:45;;;;;;;7.70;3.20;;;18.00;90.80;;;;;;4843440;29;20069;-72
2021/07/23 00:26:12;;;;;;;4.43;2.95;;;17.90;91.00;;;;;;4842648;29;20045;-71
2021/07/23 00:28:38;;;;;;;8.23;3.67;;;17.90;91.00;;;;;;4842628;29;20037;-71
2021/07/23 00:31:04;;;;;;;6.47;3.00;;;17.90;91.10;;;;;;4842211;29;20380;-71
2021/07/23 00:33:29;;;;;;;9.02;3.00;;;17.80;91.30;;;;;;4842302;29;20052;-71
2021/07/23 00:35:55;;;;;;;5.00;3.08;;;17.90;91.20;;;;;;4842826;29;20034;-71
2021/07/23 00:38:20;;;;;;;6.82;3.53;;;17.90;91.20;;;;;;4842374;29;20549;-71
2021/07/23 00:40:46;;;;;;;12.38;4.03;;;17.80;91.30;;;;;;4842169;29;20098;-71
2021/07/23 00:43:11;;;;;;;9.57;3.70;;;17.80;91.50;;;;;;4842390;29;20517;-69
2021/07/23 00:45:37;;;;;;;5.32;2.95;;;17.80;91.50;;;;;;4842095;29;20041;-70
2021/07/23 00:48:03;;;;;;;13.18;4.07;;;17.80;91.40;;;;;;4842611;29;20030;-71
2021/07/23 00:50:30;;;;;;;10.32;3.83;;;17.70;91.40;;;;;;4842225;29;20105;-70
2021/07/23 00:52:57;;;;;;;4.65;3.20;;;17.80;91.40;;;;;;4842187;29;20034;-70
2021/07/23 00:55:23;;;;;;;10.13;3.58;;;17.70;91.60;;;;;;4841827;29;20106;-70
2021/07/23 00:57:49;;;;;;;5.78;3.70;;;17.70;91.70;;;;;;4841945;29;20797;-69
2021/07/23 01:00:16;;;;;;;7.68;3.60;;;17.60;91.60;;;;;;4841629;29;20125;-70
2021/07/23 01:02:42;;;;;;;6.60;3.53;;;17.40;91.70;;;;;;4842085;29;20430;-71
2021/07/23 01:05:08;;;;;;;6.22;3.63;;;17.40;91.80;;;;;;4841910;29;20042;-69
2021/07/23 01:07:35;;;;;;;6.25;4.00;;;17.40;92.10;;;;;;4841838;29;20463;-70
2021/07/23 01:10:01;;;;;;;7.70;3.40;;;17.50;91.90;;;;;;4841782;29;20040;-71
2021/07/23 01:12:30;;;;;;;6.20;3.30;;;17.50;91.70;;;;;;4841713;29;20056;-69
2021/07/23 01:14:59;;;;;;;6.07;3.28;;;17.50;91.80;;;;;;4841975;29;20022;-70
2021/07/23 01:17:26;;;;;;;5.20;3.22;;;17.40;91.80;;;;;;4841871;29;20095;-70
2021/07/23 01:20:06;;;;;;;6.00;3.30;;;17.40;91.70;;;;;;4841673;29;20042;-71
2021/07/23 01:22:33;;;;;;;7.15;3.13;;;17.50;91.70;;;;;;4825100;29;20080;-70
2021/07/23 01:24:59;;;;;;;7.82;3.33;;;17.50;91.90;;;;;;4841486;29;20038;-70
2021/07/23 01:27:26;;;;;;;6.30;3.53;;;17.50;92.00;;;;;;4841280;29;20049;-70
2021/07/23 01:30:07;;;;;;;7.57;3.40;;;17.50;91.90;;;;;;4842239;29;20025;-70
2021/07/23 01:32:33;;;;;;;9.23;3.00;;;17.40;91.80;;;;;;4841444;29;20418;-69
2021/07/23 01:34:58;;;;;;;5.00;2.97;;;17.40;92.10;;;;;;4842511;29;20053;-71
2021/07/23 01:37:25;;;;;;;9.00;3.17;;;17.30;92.10;;;;;;4859687;29;20049;-72
2021/07/23 01:39:51;;;;;;;5.88;3.65;;;17.30;92.30;;;;;;4859637;29;20038;-71
2021/07/23 01:42:17;;;;;;;12.77;3.50;;;17.20;92.30;;;;;;4843347;29;20044;-70
2021/07/23 01:44:42;;;;;;;6.43;3.33;;;17.20;92.20;;;;;;4843772;29;20025;-70
2021/07/23 01:47:08;;;;;;;7.93;3.88;;;17.30;92.40;;;;;;4859310;29;20038;-70
2021/07/23 01:49:34;;;;;;;6.55;3.25;;;17.20;92.40;;;;;;4859641;29;20064;-71
2021/07/23 01:51:59;;;;;;;7.68;3.35;;;17.20;92.40;;;;;;4859456;29;20049;-71
2021/07/23 01:54:25;;;;;;;6.95;3.33;;;17.10;92.40;;;;;;4859517;29;20057;-71
2021/07/23 01:56:50;;;;;;;7.50;4.15;;;17.20;92.50;;;;;;4859796;29;20026;-71
2021/07/23 01:59:16;;;;;;;7.43;3.58;;;17.10;92.50;;;;;;4859193;29;20043;-71
2021/07/23 02:01:41;;;;;;;8.10;3.53;;;17.10;92.70;;;;;;4858836;29;20045;-70
2021/07/23 02:04:07;;;;;;;7.50;3.38;;;16.90;92.70;;;;;;4859318;29;20037;-71
2021/07/23 02:06:33;;;;;;;8.02;3.30;;;17.00;92.70;;;;;;4859452;29;20068;-70
2021/07/23 02:08:59;;;;;;;16.65;7.78;;;17.00;92.70;;;;;;4859620;29;20512;-69
2021/07/23 02:11:25;;;;;;;10.55;3.63;;;16.90;92.90;;;;;;4858442;29;20104;-69
2021/07/23 02:13:50;;;;;;;7.22;3.80;;;16.90;92.80;;;;;;4859143;29;20127;-70
2021/07/23 02:16:16;;;;;;;6.82;3.60;;;16.90;93.00;;;;;;4859066;29;20065;-70
2021/07/23 02:18:41;;;;;;;8.98;3.67;;;16.80;93.10;;;;;;4859020;29;20128;-70
2021/07/23 02:21:07;;;;;;;6.57;3.97;;;16.80;93.10;;;;;;4858962;29;20245;-71
2021/07/23 02:23:34;;;;;;;8.40;3.70;;;16.70;93.20;;;;;;4859575;29;20030;-70
2021/07/23 02:26:00;;;;;;;10.48;4.00;;;16.60;93.30;;;;;;4842609;29;20041;-70
2021/07/23 02:28:25;;;;;;;9.73;3.88;;;16.60;93.40;;;;;;4858877;29;20044;-70
2021/07/23 02:30:51;;;;;;;8.25;3.97;;;16.60;93.40;;;;;;4858830;29;20045;-70
2021/07/23 02:33:16;;;;;;;8.88;3.45;;;16.50;93.50;;;;;;4842409;29;20022;-70
2021/07/23 02:35:42;;;;;;;9.05;4.03;;;16.50;93.60;;;;;;4859438;29;20030;-70
2021/07/23 02:38:07;;;;;;;8.52;4.32;;;16.40;93.50;;;;;;4858904;29;20025;-71
2021/07/23 02:40:33;;;;;;;7.13;3.78;;;16.40;93.60;;;;;;4858863;29;20096;-71
2021/07/23 02:42:59;;;;;;;4.80;3.50;;;16.40;93.70;;;;;;4858613;29;20080;-70
2021/07/23 02:45:24;;;;;;;7.57;4.15;;;16.30;93.80;;;;;;4858629;29;20053;-69
2021/07/23 02:47:50;;;;;;;7.63;4.30;;;16.30;93.80;;;;;;4859124;29;20033;-69
2021/07/23 02:50:16;;;;;;;7.90;4.07;;;16.20;93.90;;;;;;4858759;29;20722;-70
2021/07/23 02:52:42;;;;;;;9.98;4.00;;;16.20;94.00;;;;;;4858746;29;20250;-70
2021/07/23 02:55:08;;;;;;;6.93;3.88;;;16.20;94.00;;;;;;4858606;29;20034;-71
2021/07/23 02:57:33;;;;;;;6.00;3.65;;;16.10;93.90;;;;;;4858786;29;20361;-70
2021/07/23 03:00:00;;;;;;;7.65;3.60;;;16.10;94.00;;;;;;4859103;29;20045;-70
2021/07/23 03:02:25;;;;;;;9.55;4.35;;;16.10;94.10;;;;;;4858293;29;20053;-70
2021/07/23 03:04:51;;;;;;;7.50;4.00;;;16.10;94.20;;;;;;4858486;29;20037;-71
2021/07/23 03:07:16;;;;;;;10.45;4.63;;;16.10;94.20;;;;;;4858776;29;20041;-70
2021/07/23 03:09:42;;;;;;;7.18;4.65;;;16.00;94.30;;;;;;4858493;29;20125;-70
2021/07/23 03:12:07;;;;;;;11.52;4.38;;;16.00;94.20;;;;;;4858507;29;20112;-70
2021/07/23 03:14:33;;;;;;;12.88;5.07;;;16.00;94.40;;;;;;4858816;29;20028;-70
2021/07/23 03:16:59;;;;;;;10.23;4.57;;;16.00;94.30;;;;;;4858361;29;20038;-69
2021/07/23 03:19:24;;;;;;;12.98;4.75;;;15.90;94.30;;;;;;4858221;29;20033;-71
2021/07/23 03:21:53;;;;;;;9.35;5.13;;;16.00;94.40;;;;;;4858321;29;20056;-70
2021/07/23 03:24:18;;;;;;;8.55;4.38;;;16.00;94.30;;;;;;4861424;29;20444;-70
2021/07/23 03:26:44;;;;;;;9.40;5.28;;;15.90;94.50;;;;;;4862411;29;20405;-71
2021/07/23 03:29:09;;;;;;;8.73;4.38;;;15.90;94.60;;;;;;4861987;29;20124;-70
2021/07/23 03:31:35;;;;;;;9.27;4.45;;;15.90;94.60;;;;;;4861934;29;20038;-70
2021/07/23 03:34:01;;;;;;;7.18;4.45;;;15.90;94.50;;;;;;4862139;29;20057;-69
2021/07/23 03:36:26;;;;;;;6.55;4.38;;;15.90;94.40;;;;;;4861885;29;20118;-70
2021/07/23 03:38:52;;;;;;;10.15;5.07;;;16.00;94.60;;;;;;4862656;29;20104;-70
2021/07/23 03:41:17;;;;;;;7.90;4.40;;;16.00;94.30;;;;;;4862093;29;20034;-70
2021/07/23 03:43:43;;;;;;;9.27;4.40;;;16.10;94.30;;;;;;4861687;29;20033;-70
2021/07/23 03:46:08;;;;;;;8.02;4.00;;;16.10;94.50;;;;;;4861612;29;20025;-69
2021/07/23 03:48:34;;;;;;;7.53;4.03;;;16.00;94.40;;;;;;4861557;29;20061;-71
2021/07/23 03:50:59;;;;;;;8.07;5.05;;;16.00;94.60;;;;;;4861985;29;20038;-71
2021/07/23 03:53:26;;;;;;;11.32;4.65;;;15.90;94.60;;;;;;4861584;29;20086;-70
2021/07/23 03:55:52;;;;;;;10.68;4.30;;;15.90;94.60;;;;;;4861771;29;20037;-71
2021/07/23 03:58:17;;;;;;;8.68;4.25;;;15.90;94.70;;;;;;4861668;29;20037;-69
2021/07/23 04:00:43;;;;;;;6.55;4.30;;;15.90;94.80;;;;;;4861565;29;20106;-71
2021/07/23 04:03:08;;;;;;;11.40;5.55;;;15.80;94.90;;;;;;4844864;29;20399;-70
2021/07/23 04:05:34;;;;;;;11.20;4.22;;;15.80;94.90;;;;;;4862040;29;20022;-70
2021/07/23 04:08:00;;;;;;;11.00;5.38;;;15.80;95.00;;;;;;4861494;29;20180;-71
2021/07/23 04:10:26;;;;;;;8.18;4.13;;;15.80;95.00;;;;;;4861145;29;20042;-70
2021/07/23 04:12:51;;;;;;;7.22;4.68;;;15.80;95.00;;;;;;4861063;29;20026;-70
2021/07/23 04:15:18;;;;;;;7.65;4.38;;;15.80;95.10;;;;;;4861101;29;20437;-70
2021/07/23 04:17:43;;;;;;;10.85;5.47;;;15.80;95.10;;;;;;4861665;29;20117;-70
2021/07/23 04:20:10;;;;;;;6.28;4.90;;;15.80;95.10;;;;;;4860766;29;20120;-70
2021/07/23 04:22:35;;;;;;;10.30;4.93;;;15.80;95.10;;;;;;4861077;29;20181;-71
2021/07/23 04:25:01;;;;;;;11.48;4.90;;;15.80;95.10;;;;;;4860973;29;20129;-70
2021/07/23 04:27:26;;;;;;;7.15;4.15;;;15.80;95.00;;;;;;4861090;29;20037;-70
2021/07/23 04:29:52;;;;;;;8.30;5.05;;;15.80;95.10;;;;;;4861350;29;20033;-71
2021/07/23 04:32:18;;;;;;;10.35;5.28;;;15.70;95.20;;;;;;4860780;29;20030;-70
2021/07/23 04:34:43;;;;;;;9.65;4.78;;;15.80;95.30;;;;;;4843989;29;20030;-70
2021/07/23 04:37:09;;;;;;;7.40;4.80;;;15.90;95.40;;;;;;4844383;29;20046;-70
2021/07/23 04:39:35;;;;;;;21.15;5.20;;;15.90;95.40;;;;;;4860716;29;20102;-71
2021/07/23 04:42:04;;;;;;;8.68;4.65;;;15.80;95.30;;;;;;4861207;29;20591;-71
2021/07/23 04:44:30;;;;;;;9.82;4.95;;;15.90;95.30;;;;;;4860823;29;20037;-71
2021/07/23 04:46:59;;;;;;;11.57;4.90;;;16.00;95.30;;;;;;4860932;29;20030;-70
2021/07/23 04:49:25;;;;;;;6.88;4.65;;;16.00;95.20;;;;;;4860596;29;20049;-70
2021/07/23 04:51:50;;;;;;;14.32;5.20;;;16.00;95.20;;;;;;4860645;29;20060;-70
2021/07/23 04:54:17;;;;;;;7.68;4.53;;;16.10;95.10;;;;;;4860571;29;20026;-70
2021/07/23 04:56:43;;;;;;;11.45;4.88;;;16.10;95.30;;;;;;4861183;29;20053;-70
2021/07/23 04:59:08;;;;;;;13.70;4.65;;;16.10;95.00;;;;;;4860337;29;20076;-72
2021/07/23 05:01:34;;;;;;;10.23;4.53;;;16.20;94.80;;;;;;4860221;29;20117;-70
2021/07/23 05:04:00;;;;;;;8.43;4.82;;;16.30;95.00;;;;;;4860021;29;20049;-70
2021/07/23 05:06:26;;;;;;;8.80;4.70;;;16.30;94.80;;;;;;4860336;29;20030;-71
2021/07/23 05:08:51;;;;;;;7.72;4.68;;;16.40;95.10;;;;;;4860458;29;20041;-70
2021/07/23 05:11:17;;;;;;;8.90;4.45;;;16.30;95.10;;;;;;4860047;29;20072;-71
2021/07/23 05:13:43;;;;;;;10.23;5.60;;;16.40;94.70;;;;;;4860239;29;20048;-71
2021/07/23 05:16:10;;;;;;;14.25;6.03;;;16.30;94.90;;;;;;4860083;29;20268;-70
2021/07/23 05:18:39;;;;;;;11.10;6.07;;;16.40;94.70;;;;;;4860032;29;20079;-71
2021/07/23 05:21:09;;;;;;;10.20;5.45;;;16.40;94.80;;;;;;4859897;29;20665;-70
2021/07/23 05:23:35;;;;;;;15.43;5.18;;;16.40;94.70;;;;;;4844080;29;20064;-70
2021/07/23 05:26:05;;;;;;;14.25;5.70;;;16.50;94.80;;;;;;4859644;29;20030;-71
2021/07/23 05:28:32;;;;;;;16.17;5.45;;;16.50;94.70;;;;;;4859860;29;20125;-70
2021/07/23 05:30:58;;;;;;;10.73;5.60;;;16.50;94.70;;;;;;4859994;29;20037;-70
2021/07/23 05:33:24;;;;;;;10.35;5.43;;;16.60;94.60;;;;;;4859904;29;20034;-70
2021/07/23 05:35:49;;;;;;;21.58;6.55;;;16.60;94.60;;;;;;4860167;29;20106;-70
2021/07/23 05:38:15;;;;;;;23.42;5.63;;;16.70;94.40;;;;;;4859717;29;20037;-70
2021/07/23 05:40:41;;;;;;;20.50;5.85;;;16.70;94.30;;;;;;4843267;29;20041;-71
2021/07/23 05:43:11;;;;;;;11.82;5.40;;;16.80;94.30;;;;;;4843115;29;20068;-70
2021/07/23 05:45:40;;;;;;;19.65;5.57;;;16.90;94.30;;;;;;4859449;29;20068;-70
2021/07/23 05:48:07;;;;;;;14.23;5.40;;;17.00;94.30;;;;;;4858961;29;20036;-70
2021/07/23 05:50:33;;;;;;;11.80;5.47;;;16.90;94.30;;;;;;4859986;29;20037;-71
2021/07/23 05:52:59;;;;;;;14.95;5.82;;;17.00;94.10;;;;;;4859552;29;20473;-70
2021/07/23 05:55:24;;;;;;;11.50;5.63;;;17.00;94.00;;;;;;4859567;29;20122;-70
2021/07/23 05:57:50;;;;;;;7.85;5.57;;;17.10;94.20;;;;;;4859225;29;20475;-72
2021/07/23 06:00:16;;;;;;;10.93;5.75;;;17.10;94.10;;;;;;4859503;29;20026;-71
2021/07/23 06:02:42;;;;;;;11.48;6.25;;;17.10;94.10;;;;;;4859689;29;20053;-72
2021/07/23 06:05:08;;;;;;;11.15;5.68;;;17.20;94.20;;;;;;4842876;29;20573;-72
2021/07/23 06:07:36;;;;;;;10.25;5.60;;;17.20;94.10;;;;;;4859327;29;20372;-73
2021/07/23 06:10:02;;;;;;;12.88;6.15;;;17.30;94.00;;;;;;4842747;29;20048;-73
2021/07/23 06:12:27;;;;;;;13.88;7.07;;;17.30;93.90;;;;;;4859208;29;20060;-73
2021/07/23 06:14:53;;;;;;;10.35;5.32;;;17.40;93.80;;;;;;4859750;29;20404;-70
2021/07/23 06:17:18;;;;;;;11.65;5.40;;;17.50;93.70;;;;;;4842934;29;20468;-73
2021/07/23 06:19:44;;;;;;;19.15;5.63;;;17.50;93.70;;;;;;4858995;29;20450;-74
2021/07/23 06:22:10;;;;;;;9.43;4.75;;;17.50;93.60;;;;;;4858794;29;20041;-71
2021/07/23 06:24:35;;;;;;;10.40;6.25;;;17.50;93.60;;;;;;4858848;29;20120;-73
2021/07/23 06:27:01;;;;;;;9.48;4.53;;;17.60;93.50;;;;;;4859361;29;20044;-73
2021/07/23 06:29:26;;;;;;;16.63;5.57;;;17.70;93.40;;;;;;4858833;29;20037;-71
2021/07/23 06:31:57;;;;;;;11.82;5.50;;;17.70;93.30;;;;;;4858702;29;20041;-72
2021/07/23 06:34:22;;;;;;;13.13;5.43;;;17.70;93.30;;;;;;4858702;29;20040;-71
2021/07/23 06:36:48;;;;;;;9.73;5.68;;;17.70;93.40;;;;;;4858786;29;20124;-71
2021/07/23 06:39:13;;;;;;;12.55;5.93;;;17.80;93.40;;;;;;4858655;29;20030;-72
2021/07/23 06:41:39;;;;;;;14.75;5.38;;;17.70;93.60;;;;;;4859151;29;20033;-73
2021/07/23 06:44:04;;;;;;;13.18;5.15;;;17.80;93.40;;;;;;4858537;29;20038;-72
2021/07/23 06:46:30;;;;;;;12.95;5.00;;;17.90;93.40;;;;;;4858433;29;20504;-71
2021/07/23 06:48:56;;;;;;;15.40;4.72;;;17.90;93.30;;;;;;4858678;29;20030;-71
2021/07/23 06:51:21;;;;;;;10.90;4.38;;;18.00;92.80;;;;;;4858082;29;20045;-70
2021/07/23 06:53:47;;;;;;;9.68;5.15;;;18.00;92.50;;;;;;4842430;29;20033;-72
2021/07/23 06:56:13;;;;;;;11.15;4.88;;;18.10;92.70;;;;;;4858578;29;20066;-71
2021/07/23 06:58:38;;;;;;;9.57;4.57;;;18.00;92.70;;;;;;4860755;29;20209;-71
2021/07/23 07:01:06;;;;;;;15.30;6.05;;;18.10;92.80;;;;;;4862157;29;20460;-73
2021/07/23 07:03:32;;;;;;;15.90;6.05;;;18.10;92.60;;;;;;4861910;29;20045;-73
2021/07/23 07:05:58;;;;;;;9.75;5.20;;;18.10;92.70;;;;;;4862449;29;20017;-70
2021/07/23 07:08:24;;;;;;;9.13;4.95;;;18.20;92.50;;;;;;4862092;29;20122;-72
2021/07/23 07:10:50;;;;;;;11.52;6.13;;;18.20;92.40;;;;;;4862108;29;20025;-71
2021/07/23 07:13:16;;;;;;;13.60;5.57;;;18.30;92.20;;;;;;4862369;29;20034;-72
2021/07/23 07:15:42;;;;;;;8.13;5.05;;;18.40;92.30;;;;;;4861899;29;20033;-72
2021/07/23 07:18:07;;;;;;;13.13;5.10;;;18.50;92.20;;;;;;4845791;29;20029;-71
2021/07/23 07:20:33;;;;;;;11.02;4.97;;;18.50;92.10;;;;;;4862334;29;20037;-71
2021/07/23 07:23:00;;;;;;;9.32;5.20;;;18.60;92.10;;;;;;4861935;29;20038;-71
2021/07/23 07:25:27;;;;;;;14.48;5.93;;;18.70;92.00;;;;;;4862274;29;20029;-72
2021/07/23 07:27:56;;;;;;;11.23;5.07;;;18.60;91.80;;;;;;4862058;29;20085;-73
2021/07/23 07:30:21;;;;;;;12.70;5.68;;;18.70;91.80;;;;;;4845233;29;20033;-71
2021/07/23 07:32:47;;;;;;;8.88;4.82;;;18.60;91.80;;;;;;4862355;29;20471;-72
2021/07/23 07:35:13;;;;;;;7.70;3.97;;;18.70;91.80;;;;;;4845300;29;20363;-72
2021/07/23 07:37:38;;;;;;;15.65;4.32;;;18.90;91.90;;;;;;4861689;29;20053;-72
2021/07/23 07:40:05;;;;;;;6.00;3.65;;;19.10;91.30;;;;;;4861563;29;20044;-71
2021/07/23 07:42:31;;;;;;;9.63;4.95;;;19.20;91.20;;;;;;4861720;29;20037;-70
2021/07/23 07:45:00;;;;;;;9.68;5.43;;;19.40;91.10;;;;;;4862072;29;20056;-72
2021/07/23 07:47:26;;;;;;;7.70;3.78;;;19.50;91.00;;;;;;4861682;29;20116;-73
2021/07/23 07:49:52;;;;;;;8.48;3.85;;;19.50;90.70;;;;;;4861488;29;20052;-72
2021/07/23 07:52:19;;;;;;;8.50;3.45;;;19.60;90.70;;;;;;4861672;29;20037;-74
2021/07/23 07:54:46;;;;;;;10.23;4.20;;;19.70;90.70;;;;;;4861484;29;20412;-73
2021/07/23 07:57:12;;;;;;;7.65;3.70;;;19.80;90.70;;;;;;4861621;29;20597;-70
2021/07/23 07:59:38;;;;;;;6.95;3.15;;;19.80;90.50;;;;;;4861865;29;20029;-72
2021/07/23 08:02:10;;;;;;;4.47;3.25;;;20.00;90.20;;;;;;4844772;29;20050;-73
2021/07/23 08:04:37;;;;;;;7.70;3.63;;;20.10;90.10;;;;;;4861295;29;20041;-74
2021/07/23 08:07:09;;;;;;;10.15;3.63;;;20.20;90.00;;;;;;4844942;29;20034;-71
2021/07/23 08:09:53;;;;;;;6.38;3.22;;;20.30;90.10;;;;;;4843691;29;20121;-73
2021/07/23 08:12:19;;;;;;;8.85;3.47;;;20.60;89.50;;;;;;4861064;29;20033;-72
2021/07/23 08:14:46;;;;;;;5.50;2.55;;;20.70;88.90;;;;;;4861538;29;20392;-73
2021/07/23 08:17:11;;;;;;;5.72;3.00;;;21.20;88.70;;;;;;4860963;29;20098;-72
2021/07/23 08:19:37;;;;;;;4.63;2.67;;;21.70;86.50;;;;;;4861081;29;20033;-72
2021/07/23 08:22:04;;;;;;;6.75;3.00;;;21.90;86.50;;;;;;4860701;29;20056;-72
2021/07/23 08:24:30;;;;;;;4.32;3.00;;;22.30;85.40;;;;;;4860937;29;20036;-76
2021/07/23 08:26:55;;;;;;;4.78;3.50;;;22.90;84.00;;;;;;4861324;29;20037;-73
2021/07/23 08:29:21;;;;;;;4.65;2.95;;;23.20;84.00;;;;;;4860970;29;20056;-74
2021/07/23 08:31:47;;;;;;;2.85;1.88;;;23.60;82.10;;;;;;4860953;29;20030;-75
2021/07/23 08:34:14;;;;;;;5.68;2.25;;;23.60;81.80;;;;;;4860646;29;20041;-72
2021/07/23 08:36:40;;;;;;;4.93;2.60;;;23.60;82.20;;;;;;4860751;29;20052;-72
2021/07/23 08:39:05;;;;;;;7.78;3.30;;;23.70;81.20;;;;;;4860717;29;20352;-71
2021/07/23 08:41:31;;;;;;;3.15;1.67;;;24.00;80.90;;;;;;4861398;29;20026;-72
2021/07/23 08:43:56;;;;;;;3.33;1.73;;;25.00;78.70;;;;;;4860994;29;20039;-74
2021/07/23 08:46:22;;;;;;;11.63;1.75;;;25.80;76.20;;;;;;4844267;29;20464;-73
2021/07/23 08:48:47;;;;;;;2.67;1.45;;;25.90;76.20;;;;;;4860456;29;20029;-72
2021/07/23 08:51:19;;;;;;;2.67;1.10;;;26.60;73.90;;;;;;4860355;29;20036;-74
2021/07/23 08:53:45;;;;;;;4.43;1.70;;;27.70;73.70;;;;;;4860891;29;20056;-72
2021/07/23 08:56:11;;;;;;;2.15;1.35;;;28.70;69.70;;;;;;4860087;29;20094;-73
2021/07/23 08:58:37;;;;;;;4.40;1.80;;;28.70;67.50;;;;;;4860383;29;20369;-73
2021/07/23 09:01:03;;;;;;;6.28;2.17;;;28.40;67.60;;;;;;4859908;29;20265;-72
2021/07/23 09:03:29;;;;;;;1.83;1.10;;;27.90;66.30;;;;;;4860071;29;20053;-72
2021/07/23 09:05:55;;;;;;;2.85;1.35;;;26.70;67.30;;;;;;4860835;29;20041;-73
2021/07/23 09:08:21;;;;;;;4.70;1.70;;;26.00;69.50;;;;;;4843803;29;20112;-74
2021/07/23 09:11:03;;;;;;;4.60;1.70;;;25.60;71.30;;;;;;4860122;29;20386;-74
2021/07/23 09:13:28;;;;;;;3.03;1.52;;;25.90;72.10;;;;;;4860186;29;20523;-72
2021/07/23 09:15:57;;;;;;;2.47;0.98;;;26.70;70.80;;;;;;4859966;29;20045;-72
2021/07/23 09:18:32;;;;;;;4.40;1.30;;;27.10;69.90;;;;;;4859923;29;20096;-73
2021/07/23 09:21:05;;;;;;;3.70;1.60;;;27.20;69.00;;;;;;4860306;29;20040;-74
2021/07/23 09:23:33;;;;;;;4.47;2.40;;;27.40;68.80;;;;;;4842911;29;20554;-74
2021/07/23 09:26:03;;;;;;;5.00;2.35;;;27.40;68.00;;;;;;4859803;29;20044;-73
2021/07/23 09:28:34;;;;;;;4.60;2.70;;;27.20;68.30;;;;;;4859702;29;20095;-74
2021/07/23 09:31:05;;;;;;;8.52;2.80;;;26.80;69.50;;;;;;4859850;29;20053;-74
2021/07/23 09:33:41;;;;;;;7.03;3.03;;;26.50;70.00;;;;;;4859523;29;20042;-72
2021/07/23 09:36:13;;;;;;;4.60;3.20;;;26.00;69.50;;;;;;4859617;29;20021;-73
2021/07/23 09:38:46;;;;;;;6.80;2.50;;;25.80;71.20;;;;;;4861052;29;20557;-73
2021/07/23 09:41:22;;;;;;;5.10;2.30;;;26.00;71.70;;;;;;4859343;29;20034;-74
2021/07/23 09:44:04;;;;;;;6.25;2.80;;;26.10;71.20;;;;;;4859503;29;20033;-73
2021/07/23 09:46:33;;;;;;;4.25;2.17;;;26.50;70.80;;;;;;4859383;29;20125;-71
2021/07/23 09:49:01;;;;;;;4.20;2.08;;;26.90;69.00;;;;;;4859751;29;20120;-74
2021/07/23 09:51:27;;;;;;;6.07;2.15;;;26.90;68.00;;;;;;4859241;29;20029;-73
2021/07/23 09:53:57;;;;;;;3.83;2.50;;;26.90;67.90;;;;;;4859514;29;20470;-73
2021/07/23 09:56:24;;;;;;;3.38;2.25;;;26.30;67.50;;;;;;4842653;29;20036;-72
2021/07/23 09:58:56;;;;;;;3.38;2.03;;;26.30;68.30;;;;;;4859098;29;20532;-73
2021/07/23 10:01:27;;;;;;;4.85;2.85;;;26.30;67.90;;;;;;4858936;29;20079;-72
2021/07/23 10:03:58;;;;;;;5.93;2.60;;;26.30;68.00;;;;;;4858764;29;20485;-71
2021/07/23 10:06:53;;;;;;;4.80;2.13;;;26.10;67.70;;;;;;4859096;29;20025;-74
2021/07/23 10:09:23;;;;;;;5.75;3.58;;;25.90;67.90;;;;;;4859058;29;20026;-72
2021/07/23 10:11:49;;;;;;;6.53;3.17;;;25.60;68.60;;;;;;4859404;29;20053;-72
2021/07/23 10:14:21;;;;;;;9.35;2.45;;;25.40;69.90;;;;;;4859059;29;20037;-73
2021/07/23 10:16:49;;;;;;;5.03;2.53;;;24.90;69.30;;;;;;4859052;29;20037;-70
2021/07/23 10:19:15;;;;;;;4.28;2.30;;;25.00;69.20;;;;;;4858803;29;20042;-70
2021/07/23 10:21:40;;;;;;;8.13;2.97;;;24.90;69.80;;;;;;4858781;29;20483;-72
2021/07/23 10:24:08;;;;;;;6.30;2.33;;;25.10;70.00;;;;;;4842757;29;20471;-71
2021/07/23 10:26:34;;;;;;;3.58;2.05;;;25.10;70.60;;;;;;4859122;29;20520;-69
2021/07/23 10:29:01;;;;;;;4.65;2.22;;;24.90;70.70;;;;;;4858718;29;20044;-73
2021/07/23 10:31:31;;;;;;;3.13;2.00;;;24.80;71.20;;;;;;4859044;29;20036;-71
2021/07/23 10:33:57;;;;;;;5.47;1.92;;;24.70;70.20;;;;;;4858203;29;20049;-73
2021/07/23 10:36:26;;;;;;;5.05;2.25;;;24.90;71.00;;;;;;4858313;29;20091;-71
2021/07/23 10:39:07;;;;;;;6.90;2.40;;;24.60;71.30;;;;;;4859066;29;20102;-72
2021/07/23 10:41:39;;;;;;;6.13;2.40;;;24.90;70.90;;;;;;4858643;29;20041;-71
2021/07/23 10:44:12;;;;;;;4.90;2.13;;;24.90;70.80;;;;;;4858533;29;20044;-71
2021/07/23 10:46:57;;;;;;;6.10;2.58;;;25.10;69.90;;;;;;4858581;29;20053;-74
2021/07/23 10:49:32;;;;;;;6.38;2.75;;;25.10;70.40;;;;;;4858498;29;20057;-73
2021/07/23 10:52:00;;;;;;;8.38;2.80;;;25.20;71.20;;;;;;4858971;29;20135;-69
2021/07/23 10:54:28;;;;;;;5.25;2.60;;;25.20;72.00;;;;;;4858957;29;20033;-70
2021/07/23 10:57:06;;;;;;;7.78;3.15;;;25.00;72.30;;;;;;4859047;29;20045;-70
2021/07/23 10:59:43;;;;;;;5.38;3.05;;;25.10;72.90;;;;;;4858680;29;20049;-72
2021/07/23 11:02:15;;;;;;;6.90;3.15;;;25.30;72.30;;;;;;4858238;29;20049;-72
2021/07/23 11:04:53;;;;;;;5.57;3.03;;;25.40;72.20;;;;;;4858441;29;20624;-75
2021/07/23 11:07:25;;;;;;;4.93;2.83;;;25.50;70.90;;;;;;4858214;29;20051;-72
2021/07/23 11:09:51;;;;;;;6.20;2.92;;;25.40;71.40;;;;;;4858319;29;20030;-72
2021/07/23 11:12:20;;;;;;;4.97;2.80;;;25.30;71.20;;;;;;4858431;29;20045;-73
2021/07/23 11:14:59;;;;;;;4.63;2.47;;;25.30;71.40;;;;;;4858627;29;20034;-73
2021/07/23 11:17:26;;;;;;;5.13;2.50;;;25.20;71.10;;;;;;4858296;29;20040;-71
2021/07/23 11:19:55;;;;;;;4.60;2.30;;;25.00;71.70;;;;;;4858254;29;20034;-72
2021/07/23 11:22:23;;;;;;;8.85;4.15;;;25.00;71.40;;;;;;4858491;29;20065;-72
2021/07/23 11:24:49;;;;;;;4.75;2.40;;;24.90;71.60;;;;;;4842094;29;20497;-73
2021/07/23 11:27:31;;;;;;;11.93;3.42;;;24.90;71.20;;;;;;4858656;29;20033;-73
2021/07/23 11:29:58;;;;;;;7.38;3.15;;;24.40;71.60;;;;;;4842542;29;20026;-71
2021/07/23 11:32:28;;;;;;;4.63;2.80;;;24.40;72.20;;;;;;4841961;29;20041;-74
2021/07/23 11:35:05;;;;;;;8.77;2.92;;;23.80;72.50;;;;;;4857989;29;20273;-71
2021/07/23 11:37:31;;;;;;;3.65;3.00;;;24.10;72.80;;;;;;4841637;29;20041;-74
2021/07/23 11:40:04;;;;;;;6.10;3.38;;;24.20;72.60;;;;;;4858068;29;20042;-73
2021/07/23 11:42:40;;;;;;;4.03;2.40;;;24.20;74.30;;;;;;4857906;29;20052;-70
2021/07/23 11:45:13;;;;;;;7.50;2.38;;;24.60;75.60;;;;;;4861256;29;20021;-73
2021/07/23 11:47:40;;;;;;;4.28;2.22;;;24.90;74.70;;;;;;4862011;29;20026;-73
2021/07/23 11:50:08;;;;;;;5.43;2.92;;;24.90;74.70;;;;;;4861618;29;20132;-72
2021/07/23 11:52:34;;;;;;;5.60;2.50;;;24.80;74.60;;;;;;4861379;29;20029;-72
2021/07/23 11:55:02;;;;;;;5.78;2.58;;;24.90;74.40;;;;;;4861581;29;20064;-71
2021/07/23 11:57:35;;;;;;;1.70;1.55;;;25.00;74.20;;;;;;4861602;29;20471;-70
2021/07/23 12:00:01;;;;;;;4.70;2.20;;;25.10;74.30;;;;;;4861858;29;20045;-71
2021/07/23 12:02:28;;;;;;;4.78;2.40;;;24.90;74.80;;;;;;4861069;29;20058;-71
2021/07/23 12:05:11;;;;;;;6.70;3.10;;;24.90;75.00;;;;;;4861178;29;20121;-71
2021/07/23 12:07:37;;;;;;;7.03;4.05;;;24.90;75.20;;;;;;4861152;29;20067;-71
2021/07/23 12:10:09;;;;;;;6.72;3.53;;;25.10;74.80;;;;;;4844507;29;20546;-73
2021/07/23 12:12:36;;;;;;;6.40;3.08;;;25.10;72.90;;;;;;4860810;29;20037;-72
2021/07/23 12:15:12;;;;;;;8.93;3.20;;;25.20;73.20;;;;;;4861603;29;20028;-72
2021/07/23 12:17:43;;;;;;;7.90;3.47;;;25.00;72.00;;;;;;4861313;29;20515;-76
2021/07/23 12:20:10;;;;;;;7.75;3.58;;;24.80;72.80;;;;;;4860966;29;20034;-74
2021/07/23 12:22:38;;;;;;;6.07;3.27;;;24.60;72.50;;;;;;4861019;29;20033;-73
2021/07/23 12:25:20;;;;;;;3.53;2.47;;;24.60;73.00;;;;;;4860908;29;20300;-74
2021/07/23 12:27:46;;;;;;;5.38;2.55;;;24.70;72.70;;;;;;4861139;29;20048;-72
2021/07/23 12:30:13;;;;;;;6.50;3.42;;;24.60;72.50;;;;;;4861195;29;20021;-73
2021/07/23 12:32:39;;;;;;;6.65;3.45;;;24.50;72.40;;;;;;4861542;29;20039;-74
2021/07/23 12:35:05;;;;;;;7.00;4.10;;;24.40;72.20;;;;;;4860645;29;20037;-72
2021/07/23 12:37:31;;;;;;;6.18;3.10;;;24.60;72.40;;;;;;4860581;29;20163;-71
2021/07/23 12:40:03;;;;;;;5.55;2.70;;;24.60;72.50;;;;;;4860571;29;20038;-72
2021/07/23 12:42:30;;;;;;;4.22;2.72;;;24.80;72.30;;;;;;4860764;29;20064;-72
2021/07/23 12:44:56;;;;;;;6.70;2.57;;;24.80;72.30;;;;;;4860912;29;20452;-73